sensor_id;sensor_type;location;lat;lon;timestamp;temperature;humidity
26051;DHT22;13825;53.496;10.020;2022-11-02T00:01:54;11.40;99.90
26051;DHT22;13825;53.496;10.020;2022-11-02T00:04:22;11.40;99.90
26051;DHT22;13825;53.496;10.020;2022-11-02T00:06:49;11.50;99.90
26051;DHT22;13825;53.496;10.020;2022-11-02T00:09:18;11.50;99.90
26051;DHT22;13825;53.496;10.020;2022-11-02T00:11:45;11.50;99.90
26051;DHT22;13825;53.496;10.020;2022-11-02T00:14:14;11.50;99.90
26051;DHT22;13825;53.496;10.020;2022-11-02T00:16:41;11.50;99.90
26051;DHT22;13825;53.496;10.020;2022-11-02T00:19:08;11.50;99.90
26051;DHT22;13825;53.496;10.020;2022-11-02T00:21:37;11.50;99.90
26051;DHT22;13825;53.496;10.020;2022-11-02T00:24:06;11.50;99.90
26051;DHT22;13825;53.496;10.020;2022-11-02T00:26:35;11.50;99.90
26051;DHT22;13825;53.496;10.020;2022-11-02T00:29:04;11.50;99.90
26051;DHT22;13825;53.496;10.020;2022-11-02T00:31:31;11.50;99.90
26051;DHT22;13825;53.496;10.020;2022-11-02T00:33:58;11.50;99.90
26051;DHT22;13825;53.496;10.020;2022-11-02T00:36:25;11.50;99.90
26051;DHT22;13825;53.496;10.020;2022-11-02T00:38:53;11.50;99.90
26051;DHT22;13825;53.496;10.020;2022-11-02T00:41:25;11.50;99.90
26051;DHT22;13825;53.496;10.020;2022-11-02T00:43:55;11.50;99.90
26051;DHT22;13825;53.496;10.020;2022-11-02T00:46:22;11.50;99.90
26051;DHT22;13825;53.496;10.020;2022-11-02T00:48:49;11.50;99.90
26051;DHT22;13825;53.496;10.020;2022-11-02T00:51:15;11.60;99.90
26051;DHT22;13825;53.496;10.020;2022-11-02T00:53:42;11.50;99.90
26051;DHT22;13825;53.496;10.020;2022-11-02T00:56:11;11.50;99.90
26051;DHT22;13825;53.496;10.020;2022-11-02T00:58:38;11.50;99.90
26051;DHT22;13825;53.496;10.020;2022-11-02T01:01:05;11.50;99.90
26051;DHT22;13825;53.496;10.020;2022-11-02T01:03:32;11.50;99.90
26051;DHT22;13825;53.496;10.020;2022-11-02T01:06:21;11.50;99.90
26051;DHT22;13825;53.496;10.020;2022-11-02T01:08:50;11.50;99.90
26051;DHT22;13825;53.496;10.020;2022-11-02T01:11:20;11.50;99.90
26051;DHT22;13825;53.496;10.020;2022-11-02T01:13:49;11.50;99.90
26051;DHT22;13825;53.496;10.020;2022-11-02T01:16:22;11.50;99.90
26051;DHT22;13825;53.496;10.020;2022-11-02T01:18:51;11.50;99.90
26051;DHT22;13825;53.496;10.020;2022-11-02T01:21:18;11.50;99.90
26051;DHT22;13825;53.496;10.020;2022-11-02T01:23:49;11.50;99.90
26051;DHT22;13825;53.496;10.020;2022-11-02T01:26:18;11.50;99.90
26051;DHT22;13825;53.496;10.020;2022-11-02T01:28:44;11.40;99.90
26051;DHT22;13825;53.496;10.020;2022-11-02T01:31:11;11.40;99.90
26051;DHT22;13825;53.496;10.020;2022-11-02T01:33:43;11.40;99.90
26051;DHT22;13825;53.496;10.020;2022-11-02T01:36:11;11.40;99.90
26051;DHT22;13825;53.496;10.020;2022-11-02T01:38:55;11.40;99.90
26051;DHT22;13825;53.496;10.020;2022-11-02T01:41:23;11.40;99.90
26051;DHT22;13825;53.496;10.020;2022-11-02T01:43:53;11.40;99.90
26051;DHT22;13825;53.496;10.020;2022-11-02T01:46:28;11.40;99.90
26051;DHT22;13825;53.496;10.020;2022-11-02T01:48:59;11.40;99.90
26051;DHT22;13825;53.496;10.020;2022-11-02T01:51:33;11.30;99.90
26051;DHT22;13825;53.496;10.020;2022-11-02T01:54:05;11.40;99.90
26051;DHT22;13825;53.496;10.020;2022-11-02T01:56:37;11.40;99.90
26051;DHT22;13825;53.496;10.020;2022-11-02T01:59:08;11.40;99.90
26051;DHT22;13825;53.496;10.020;2022-11-02T02:01:36;11.40;99.90
26051;DHT22;13825;53.496;10.020;2022-11-02T02:04:03;11.40;99.90
26051;DHT22;13825;53.496;10.020;2022-11-02T02:06:31;11.40;99.90
26051;DHT22;13825;53.496;10.020;2022-11-02T02:09:00;11.40;99.90
26051;DHT22;13825;53.496;10.020;2022-11-02T02:11:30;11.40;99.90
26051;DHT22;13825;53.496;10.020;2022-11-02T02:14:03;11.40;99.90
26051;DHT22;13825;53.496;10.020;2022-11-02T02:16:57;11.40;99.90
26051;DHT22;13825;53.496;10.020;2022-11-02T02:19:37;11.40;99.90
26051;DHT22;13825;53.496;10.020;2022-11-02T02:25:27;11.50;99.90
26051;DHT22;13825;53.496;10.020;2022-11-02T02:28:12;11.50;99.90
26051;DHT22;13825;53.496;10.020;2022-11-02T02:30:47;11.60;99.90
26051;DHT22;13825;53.496;10.020;2022-11-02T02:33:21;11.50;99.90
26051;DHT22;13825;53.496;10.020;2022-11-02T02:35:54;11.60;99.90
26051;DHT22;13825;53.496;10.020;2022-11-02T02:38:27;11.60;99.90
26051;DHT22;13825;53.496;10.020;2022-11-02T02:40:59;11.60;99.90
26051;DHT22;13825;53.496;10.020;2022-11-02T02:43:35;11.60;99.90
26051;DHT22;13825;53.496;10.020;2022-11-02T02:46:07;11.60;99.90
26051;DHT22;13825;53.496;10.020;2022-11-02T02:48:36;11.60;99.90
26051;DHT22;13825;53.496;10.020;2022-11-02T02:51:10;11.60;99.90
26051;DHT22;13825;53.496;10.020;2022-11-02T02:53:41;11.60;99.90
26051;DHT22;13825;53.496;10.020;2022-11-02T02:56:10;11.60;99.90
26051;DHT22;13825;53.496;10.020;2022-11-02T02:58:46;11.60;99.90
26051;DHT22;13825;53.496;10.020;2022-11-02T03:01:20;11.60;99.90
26051;DHT22;13825;53.496;10.020;2022-11-02T03:03:47;11.60;99.90
26051;DHT22;13825;53.496;10.020;2022-11-02T03:06:17;11.60;99.90
26051;DHT22;13825;53.496;10.020;2022-11-02T03:11:34;11.60;99.90
26051;DHT22;13825;53.496;10.020;2022-11-02T03:14:13;11.60;99.90
26051;DHT22;13825;53.496;10.020;2022-11-02T03:16:53;11.60;99.90
26051;DHT22;13825;53.496;10.020;2022-11-02T03:19:32;11.60;99.90
26051;DHT22;13825;53.496;10.020;2022-11-02T03:22:07;11.60;99.90
26051;DHT22;13825;53.496;10.020;2022-11-02T03:24:39;11.60;99.90
26051;DHT22;13825;53.496;10.020;2022-11-02T03:27:16;11.60;99.90
26051;DHT22;13825;53.496;10.020;2022-11-02T03:29:53;11.50;99.90
26051;DHT22;13825;53.496;10.020;2022-11-02T03:32:25;11.50;99.90
26051;DHT22;13825;53.496;10.020;2022-11-02T03:35:02;11.50;99.90
26051;DHT22;13825;53.496;10.020;2022-11-02T03:37:36;11.50;99.90
26051;DHT22;13825;53.496;10.020;2022-11-02T03:40:07;11.60;99.90
26051;DHT22;13825;53.496;10.020;2022-11-02T03:42:36;11.60;99.90
26051;DHT22;13825;53.496;10.020;2022-11-02T03:45:14;11.60;99.90
26051;DHT22;13825;53.496;10.020;2022-11-02T03:47:46;11.60;99.90
26051;DHT22;13825;53.496;10.020;2022-11-02T03:50:20;11.50;99.90
26051;DHT22;13825;53.496;10.020;2022-11-02T03:53:02;11.60;99.90
26051;DHT22;13825;53.496;10.020;2022-11-02T03:55:34;11.60;99.90
26051;DHT22;13825;53.496;10.020;2022-11-02T03:58:01;11.50;99.90
26051;DHT22;13825;53.496;10.020;2022-11-02T04:00:32;11.40;99.90
26051;DHT22;13825;53.496;10.020;2022-11-02T04:03:00;11.30;99.90
26051;DHT22;13825;53.496;10.020;2022-11-02T04:05:29;11.30;99.90
26051;DHT22;13825;53.496;10.020;2022-11-02T04:07:57;11.20;99.90
26051;DHT22;13825;53.496;10.020;2022-11-02T04:10:42;11.20;99.90
26051;DHT22;13825;53.496;10.020;2022-11-02T04:13:25;11.20;99.90
26051;DHT22;13825;53.496;10.020;2022-11-02T04:16:13;11.20;99.90
26051;DHT22;13825;53.496;10.020;2022-11-02T04:18:41;11.10;99.90
26051;DHT22;13825;53.496;10.020;2022-11-02T04:21:25;11.10;99.90
26051;DHT22;13825;53.496;10.020;2022-11-02T04:23:52;11.10;99.90
26051;DHT22;13825;53.496;10.020;2022-11-02T04:26:37;11.10;99.90
26051;DHT22;13825;53.496;10.020;2022-11-02T04:29:04;11.10;99.90
26051;DHT22;13825;53.496;10.020;2022-11-02T04:31:33;11.00;99.90
26051;DHT22;13825;53.496;10.020;2022-11-02T04:34:00;11.00;99.90
26051;DHT22;13825;53.496;10.020;2022-11-02T04:36:27;11.00;99.90
26051;DHT22;13825;53.496;10.020;2022-11-02T04:38:55;11.00;99.90
26051;DHT22;13825;53.496;10.020;2022-11-02T04:41:22;11.00;99.90
26051;DHT22;13825;53.496;10.020;2022-11-02T04:44:08;11.00;99.90
26051;DHT22;13825;53.496;10.020;2022-11-02T04:46:37;11.00;99.90
26051;DHT22;13825;53.496;10.020;2022-11-02T04:49:04;11.00;99.90
26051;DHT22;13825;53.496;10.020;2022-11-02T04:51:31;11.00;99.90
26051;DHT22;13825;53.496;10.020;2022-11-02T04:54:00;11.00;99.90
26051;DHT22;13825;53.496;10.020;2022-11-02T04:56:29;11.00;99.90
26051;DHT22;13825;53.496;10.020;2022-11-02T04:58:57;11.00;99.90
26051;DHT22;13825;53.496;10.020;2022-11-02T05:01:25;11.00;99.90
26051;DHT22;13825;53.496;10.020;2022-11-02T05:03:54;11.00;99.90
26051;DHT22;13825;53.496;10.020;2022-11-02T05:06:24;10.90;99.90
26051;DHT22;13825;53.496;10.020;2022-11-02T05:08:51;10.90;99.90
26051;DHT22;13825;53.496;10.020;2022-11-02T05:11:19;11.00;99.90
26051;DHT22;13825;53.496;10.020;2022-11-02T05:13:46;11.00;99.90
26051;DHT22;13825;53.496;10.020;2022-11-02T05:16:14;11.00;99.90
26051;DHT22;13825;53.496;10.020;2022-11-02T05:18:44;10.90;99.90
26051;DHT22;13825;53.496;10.020;2022-11-02T05:21:15;10.90;99.90
26051;DHT22;13825;53.496;10.020;2022-11-02T05:23:41;10.90;99.90
26051;DHT22;13825;53.496;10.020;2022-11-02T05:26:11;10.90;99.90
26051;DHT22;13825;53.496;10.020;2022-11-02T05:28:54;10.90;99.90
26051;DHT22;13825;53.496;10.020;2022-11-02T05:31:21;10.90;99.90
26051;DHT22;13825;53.496;10.020;2022-11-02T05:33:48;11.00;99.90
26051;DHT22;13825;53.496;10.020;2022-11-02T05:36:35;11.00;99.90
26051;DHT22;13825;53.496;10.020;2022-11-02T05:39:02;11.00;99.90
26051;DHT22;13825;53.496;10.020;2022-11-02T05:41:42;11.00;99.90
26051;DHT22;13825;53.496;10.020;2022-11-02T05:44:23;11.00;99.90
26051;DHT22;13825;53.496;10.020;2022-11-02T05:46:52;10.90;99.90
26051;DHT22;13825;53.496;10.020;2022-11-02T05:49:19;10.80;99.90
26051;DHT22;13825;53.496;10.020;2022-11-02T05:51:48;10.70;99.90
26051;DHT22;13825;53.496;10.020;2022-11-02T05:54:16;10.60;99.90
26051;DHT22;13825;53.496;10.020;2022-11-02T05:56:46;10.60;99.90
26051;DHT22;13825;53.496;10.020;2022-11-02T05:59:14;10.60;99.90
26051;DHT22;13825;53.496;10.020;2022-11-02T06:01:42;10.60;99.90
26051;DHT22;13825;53.496;10.020;2022-11-02T06:04:10;10.50;99.90
26051;DHT22;13825;53.496;10.020;2022-11-02T06:06:50;10.60;99.90
26051;DHT22;13825;53.496;10.020;2022-11-02T06:09:19;10.60;99.90
26051;DHT22;13825;53.496;10.020;2022-11-02T06:11:46;10.60;99.90
26051;DHT22;13825;53.496;10.020;2022-11-02T06:14:13;10.70;99.90
26051;DHT22;13825;53.496;10.020;2022-11-02T06:16:40;10.70;99.90
26051;DHT22;13825;53.496;10.020;2022-11-02T06:19:09;10.80;99.90
26051;DHT22;13825;53.496;10.020;2022-11-02T06:21:45;10.80;99.90
26051;DHT22;13825;53.496;10.020;2022-11-02T06:24:13;10.80;99.90
26051;DHT22;13825;53.496;10.020;2022-11-02T06:26:40;10.90;99.90
26051;DHT22;13825;53.496;10.020;2022-11-02T06:29:07;10.90;99.90
26051;DHT22;13825;53.496;10.020;2022-11-02T06:31:37;10.90;99.90
26051;DHT22;13825;53.496;10.020;2022-11-02T06:34:04;10.90;99.90
26051;DHT22;13825;53.496;10.020;2022-11-02T06:36:34;10.90;99.90
26051;DHT22;13825;53.496;10.020;2022-11-02T06:39:32;10.90;99.90
26051;DHT22;13825;53.496;10.020;2022-11-02T06:41:59;11.00;99.90
26051;DHT22;13825;53.496;10.020;2022-11-02T06:44:37;10.90;99.90
26051;DHT22;13825;53.496;10.020;2022-11-02T06:47:05;11.00;99.90
26051;DHT22;13825;53.496;10.020;2022-11-02T06:49:33;11.00;99.90
26051;DHT22;13825;53.496;10.020;2022-11-02T06:52:03;11.00;99.90
26051;DHT22;13825;53.496;10.020;2022-11-02T06:54:31;11.10;99.90
26051;DHT22;13825;53.496;10.020;2022-11-02T06:57:00;11.20;99.90
26051;DHT22;13825;53.496;10.020;2022-11-02T06:59:27;11.20;99.90
26051;DHT22;13825;53.496;10.020;2022-11-02T07:01:58;11.30;99.90
26051;DHT22;13825;53.496;10.020;2022-11-02T07:04:28;11.30;99.90
26051;DHT22;13825;53.496;10.020;2022-11-02T07:06:55;11.40;99.90
26051;DHT22;13825;53.496;10.020;2022-11-02T07:09:55;11.50;99.90
26051;DHT22;13825;53.496;10.020;2022-11-02T07:12:19;11.50;99.90
26051;DHT22;13825;53.496;10.020;2022-11-02T07:15:14;11.40;99.90
26051;DHT22;13825;53.496;10.020;2022-11-02T07:17:57;11.30;99.90
26051;DHT22;13825;53.496;10.020;2022-11-02T07:20:27;11.40;99.90
26051;DHT22;13825;53.496;10.020;2022-11-02T07:22:59;11.40;99.90
26051;DHT22;13825;53.496;10.020;2022-11-02T07:25:28;11.50;99.90
26051;DHT22;13825;53.496;10.020;2022-11-02T07:28:05;11.40;99.90
26051;DHT22;13825;53.496;10.020;2022-11-02T07:30:34;11.40;99.90
26051;DHT22;13825;53.496;10.020;2022-11-02T07:33:10;11.50;99.90
26051;DHT22;13825;53.496;10.020;2022-11-02T07:39:06;11.50;99.90
26051;DHT22;13825;53.496;10.020;2022-11-02T07:41:42;11.60;99.90
26051;DHT22;13825;53.496;10.020;2022-11-02T07:44:18;11.60;99.90
26051;DHT22;13825;53.496;10.020;2022-11-02T07:46:50;11.60;99.90
26051;DHT22;13825;53.496;10.020;2022-11-02T07:49:20;11.70;99.90
26051;DHT22;13825;53.496;10.020;2022-11-02T07:51:57;11.70;99.90
26051;DHT22;13825;53.496;10.020;2022-11-02T07:54:30;11.60;99.90
26051;DHT22;13825;53.496;10.020;2022-11-02T07:56:57;11.60;99.90
26051;DHT22;13825;53.496;10.020;2022-11-02T07:59:37;11.60;99.90
26051;DHT22;13825;53.496;10.020;2022-11-02T08:02:11;11.70;99.90
26051;DHT22;13825;53.496;10.020;2022-11-02T08:04:46;11.80;99.90
26051;DHT22;13825;53.496;10.020;2022-11-02T08:07:27;11.90;99.90
26051;DHT22;13825;53.496;10.020;2022-11-02T08:10:08;12.00;99.90
26051;DHT22;13825;53.496;10.020;2022-11-02T08:12:43;12.10;99.90
26051;DHT22;13825;53.496;10.020;2022-11-02T08:15:14;12.10;99.90
26051;DHT22;13825;53.496;10.020;2022-11-02T08:17:41;12.20;99.90
26051;DHT22;13825;53.496;10.020;2022-11-02T08:20:28;12.30;99.90
26051;DHT22;13825;53.496;10.020;2022-11-02T08:22:57;12.40;99.90
26051;DHT22;13825;53.496;10.020;2022-11-02T08:25:35;12.40;99.90
26051;DHT22;13825;53.496;10.020;2022-11-02T08:28:04;12.50;99.90
26051;DHT22;13825;53.496;10.020;2022-11-02T08:30:39;12.50;99.90
26051;DHT22;13825;53.496;10.020;2022-11-02T08:33:10;12.50;99.90
26051;DHT22;13825;53.496;10.020;2022-11-02T08:35:47;12.50;99.90
26051;DHT22;13825;53.496;10.020;2022-11-02T08:38:16;12.50;99.90
26051;DHT22;13825;53.496;10.020;2022-11-02T08:40:47;12.60;99.90
26051;DHT22;13825;53.496;10.020;2022-11-02T08:43:45;12.70;99.90
26051;DHT22;13825;53.496;10.020;2022-11-02T08:46:42;12.80;99.90
26051;DHT22;13825;53.496;10.020;2022-11-02T08:49:39;12.90;99.90
26051;DHT22;13825;53.496;10.020;2022-11-02T08:59:10;13.20;99.90
26051;DHT22;13825;53.496;10.020;2022-11-02T09:01:37;13.30;99.90
26051;DHT22;13825;53.496;10.020;2022-11-02T09:04:08;13.20;99.90
26051;DHT22;13825;53.496;10.020;2022-11-02T09:06:40;13.30;99.90
26051;DHT22;13825;53.496;10.020;2022-11-02T09:12:13;13.20;99.90
26051;DHT22;13825;53.496;10.020;2022-11-02T09:14:45;13.10;99.90
26051;DHT22;13825;53.496;10.020;2022-11-02T09:17:15;13.10;99.90
26051;DHT22;13825;53.496;10.020;2022-11-02T09:19:48;13.10;99.90
26051;DHT22;13825;53.496;10.020;2022-11-02T09:22:14;13.10;99.90
26051;DHT22;13825;53.496;10.020;2022-11-02T09:24:41;13.10;99.90
26051;DHT22;13825;53.496;10.020;2022-11-02T09:27:14;13.20;99.90
26051;DHT22;13825;53.496;10.020;2022-11-02T09:29:41;13.20;99.90
26051;DHT22;13825;53.496;10.020;2022-11-02T09:32:32;13.20;99.90
26051;DHT22;13825;53.496;10.020;2022-11-02T09:38:49;13.20;99.90
26051;DHT22;13825;53.496;10.020;2022-11-02T09:41:31;13.10;99.90
26051;DHT22;13825;53.496;10.020;2022-11-02T09:44:19;13.10;99.90
26051;DHT22;13825;53.496;10.020;2022-11-02T09:46:49;13.20;99.90
26051;DHT22;13825;53.496;10.020;2022-11-02T09:49:38;13.10;99.90
26051;DHT22;13825;53.496;10.020;2022-11-02T09:55:33;13.10;99.90
26051;DHT22;13825;53.496;10.020;2022-11-02T09:58:22;13.10;99.90
26051;DHT22;13825;53.496;10.020;2022-11-02T10:00:52;13.30;99.90
26051;DHT22;13825;53.496;10.020;2022-11-02T10:03:35;13.40;99.90
26051;DHT22;13825;53.496;10.020;2022-11-02T10:06:17;13.30;99.90
26051;DHT22;13825;53.496;10.020;2022-11-02T10:08:59;13.20;99.90
26051;DHT22;13825;53.496;10.020;2022-11-02T10:11:44;13.10;99.90
26051;DHT22;13825;53.496;10.020;2022-11-02T10:14:44;13.00;99.90
26051;DHT22;13825;53.496;10.020;2022-11-02T10:17:34;12.90;99.90
26051;DHT22;13825;53.496;10.020;2022-11-02T10:20:24;12.70;99.90
26051;DHT22;13825;53.496;10.020;2022-11-02T10:23:15;12.40;99.90
26051;DHT22;13825;53.496;10.020;2022-11-02T10:25:50;12.20;99.90
26051;DHT22;13825;53.496;10.020;2022-11-02T10:28:39;12.10;99.90
26051;DHT22;13825;53.496;10.020;2022-11-02T10:31:45;12.20;99.90
26051;DHT22;13825;53.496;10.020;2022-11-02T10:34:29;12.10;99.90
26051;DHT22;13825;53.496;10.020;2022-11-02T10:42:38;12.20;99.90
26051;DHT22;13825;53.496;10.020;2022-11-02T10:43:24;12.10;99.90
26051;DHT22;13825;53.496;10.020;2022-11-02T10:46:43;12.00;99.90
26051;DHT22;13825;53.496;10.020;2022-11-02T10:53:00;12.10;99.90
26051;DHT22;13825;53.496;10.020;2022-11-02T10:55:31;12.50;99.90
26051;DHT22;13825;53.496;10.020;2022-11-02T10:59:39;12.60;99.90
26051;DHT22;13825;53.496;10.020;2022-11-02T11:04:47;13.00;99.90
26051;DHT22;13825;53.496;10.020;2022-11-02T11:10:27;13.30;99.90
26051;DHT22;13825;53.496;10.020;2022-11-02T11:13:33;13.50;99.90
26051;DHT22;13825;53.496;10.020;2022-11-02T11:16:00;13.40;99.90
26051;DHT22;13825;53.496;10.020;2022-11-02T11:18:29;13.50;99.90
26051;DHT22;13825;53.496;10.020;2022-11-02T11:21:22;13.40;99.90
26051;DHT22;13825;53.496;10.020;2022-11-02T11:24:15;13.20;99.90
26051;DHT22;13825;53.496;10.020;2022-11-02T11:27:03;13.20;99.90
26051;DHT22;13825;53.496;10.020;2022-11-02T11:29:44;13.60;99.90
26051;DHT22;13825;53.496;10.020;2022-11-02T11:32:14;13.60;99.90
26051;DHT22;13825;53.496;10.020;2022-11-02T11:34:49;13.40;99.90
26051;DHT22;13825;53.496;10.020;2022-11-02T11:37:34;13.40;99.90
26051;DHT22;13825;53.496;10.020;2022-11-02T11:40:05;13.40;99.90
26051;DHT22;13825;53.496;10.020;2022-11-02T11:42:47;13.70;99.90
26051;DHT22;13825;53.496;10.020;2022-11-02T11:45:21;13.70;99.90
26051;DHT22;13825;53.496;10.020;2022-11-02T11:47:51;13.60;99.90
26051;DHT22;13825;53.496;10.020;2022-11-02T11:50:20;13.40;99.90
26051;DHT22;13825;53.496;10.020;2022-11-02T11:52:47;13.30;99.90
26051;DHT22;13825;53.496;10.020;2022-11-02T11:55:35;13.30;99.90
26051;DHT22;13825;53.496;10.020;2022-11-02T11:58:19;13.20;99.90
26051;DHT22;13825;53.496;10.020;2022-11-02T12:01:01;13.00;99.90
26051;DHT22;13825;53.496;10.020;2022-11-02T12:03:28;12.80;99.90
26051;DHT22;13825;53.496;10.020;2022-11-02T12:06:02;12.50;99.90
26051;DHT22;13825;53.496;10.020;2022-11-02T12:08:43;12.30;99.90
26051;DHT22;13825;53.496;10.020;2022-11-02T12:11:29;12.30;99.90
26051;DHT22;13825;53.496;10.020;2022-11-02T12:14:12;12.20;99.90
26051;DHT22;13825;53.496;10.020;2022-11-02T12:17:05;12.20;99.90
26051;DHT22;13825;53.496;10.020;2022-11-02T12:19:48;11.90;99.90
26051;DHT22;13825;53.496;10.020;2022-11-02T12:22:22;10.90;99.90
26051;DHT22;13825;53.496;10.020;2022-11-02T12:25:03;10.50;99.90
26051;DHT22;13825;53.496;10.020;2022-11-02T12:27:38;10.40;99.90
26051;DHT22;13825;53.496;10.020;2022-11-02T12:30:14;10.50;99.90
26051;DHT22;13825;53.496;10.020;2022-11-02T12:32:53;10.50;99.90
26051;DHT22;13825;53.496;10.020;2022-11-02T12:35:37;10.60;99.90
26051;DHT22;13825;53.496;10.020;2022-11-02T12:41:25;10.80;99.90
26051;DHT22;13825;53.496;10.020;2022-11-02T12:44:05;10.70;99.90
26051;DHT22;13825;53.496;10.020;2022-11-02T12:46:42;10.80;99.90
26051;DHT22;13825;53.496;10.020;2022-11-02T12:49:30;10.80;99.90
26051;DHT22;13825;53.496;10.020;2022-11-02T12:52:05;11.10;99.90
26051;DHT22;13825;53.496;10.020;2022-11-02T12:54:41;11.30;99.90
26051;DHT22;13825;53.496;10.020;2022-11-02T12:57:12;11.60;99.90
26051;DHT22;13825;53.496;10.020;2022-11-02T12:59:42;11.80;99.90
26051;DHT22;13825;53.496;10.020;2022-11-02T13:02:12;12.10;99.90
26051;DHT22;13825;53.496;10.020;2022-11-02T13:04:45;12.30;99.90
26051;DHT22;13825;53.496;10.020;2022-11-02T13:07:15;12.40;99.90
26051;DHT22;13825;53.496;10.020;2022-11-02T13:09:51;12.60;99.90
26051;DHT22;13825;53.496;10.020;2022-11-02T13:12:21;12.60;99.90
26051;DHT22;13825;53.496;10.020;2022-11-02T13:14:51;12.70;99.90
26051;DHT22;13825;53.496;10.020;2022-11-02T13:17:21;12.60;99.90
26051;DHT22;13825;53.496;10.020;2022-11-02T13:19:50;12.50;99.90
26051;DHT22;13825;53.496;10.020;2022-11-02T13:22:20;12.40;99.90
26051;DHT22;13825;53.496;10.020;2022-11-02T13:24:54;12.20;99.90
26051;DHT22;13825;53.496;10.020;2022-11-02T13:27:29;12.00;99.90
26051;DHT22;13825;53.496;10.020;2022-11-02T13:30:03;11.80;99.90
26051;DHT22;13825;53.496;10.020;2022-11-02T13:32:33;11.20;99.90
26051;DHT22;13825;53.496;10.020;2022-11-02T13:35:05;10.80;99.90
26051;DHT22;13825;53.496;10.020;2022-11-02T13:37:44;10.80;99.90
26051;DHT22;13825;53.496;10.020;2022-11-02T13:40:21;11.00;99.90
26051;DHT22;13825;53.496;10.020;2022-11-02T13:45:59;11.20;99.90
26051;DHT22;13825;53.496;10.020;2022-11-02T13:48:48;11.40;99.90
26051;DHT22;13825;53.496;10.020;2022-11-02T13:51:24;11.50;99.90
26051;DHT22;13825;53.496;10.020;2022-11-02T13:53:54;11.50;99.90
26051;DHT22;13825;53.496;10.020;2022-11-02T13:56:25;11.50;99.90
26051;DHT22;13825;53.496;10.020;2022-11-02T13:58:56;11.50;99.90
26051;DHT22;13825;53.496;10.020;2022-11-02T14:01:24;11.50;99.90
26051;DHT22;13825;53.496;10.020;2022-11-02T14:03:56;11.60;99.90
26051;DHT22;13825;53.496;10.020;2022-11-02T14:06:24;11.60;99.90
26051;DHT22;13825;53.496;10.020;2022-11-02T14:08:54;11.70;99.90
26051;DHT22;13825;53.496;10.020;2022-11-02T14:11:26;11.80;99.90
26051;DHT22;13825;53.496;10.020;2022-11-02T14:14:18;11.80;99.90
26051;DHT22;13825;53.496;10.020;2022-11-02T14:17:10;11.80;99.90
26051;DHT22;13825;53.496;10.020;2022-11-02T14:19:55;11.70;99.90
26051;DHT22;13825;53.496;10.020;2022-11-02T14:22:29;11.70;99.90
26051;DHT22;13825;53.496;10.020;2022-11-02T14:25:13;11.60;99.90
26051;DHT22;13825;53.496;10.020;2022-11-02T14:27:41;11.60;99.90
26051;DHT22;13825;53.496;10.020;2022-11-02T14:33:26;11.40;99.90
26051;DHT22;13825;53.496;10.020;2022-11-02T14:35:59;11.40;99.90
26051;DHT22;13825;53.496;10.020;2022-11-02T14:38:50;11.50;99.90
26051;DHT22;13825;53.496;10.020;2022-11-02T14:41:41;11.50;99.90
26051;DHT22;13825;53.496;10.020;2022-11-02T14:44:38;11.60;99.90
26051;DHT22;13825;53.496;10.020;2022-11-02T14:47:11;11.60;99.90
26051;DHT22;13825;53.496;10.020;2022-11-02T14:49:46;11.50;99.90
26051;DHT22;13825;53.496;10.020;2022-11-02T14:52:22;11.40;99.90
26051;DHT22;13825;53.496;10.020;2022-11-02T14:54:52;11.30;99.90
26051;DHT22;13825;53.496;10.020;2022-11-02T14:57:23;11.20;99.90
26051;DHT22;13825;53.496;10.020;2022-11-02T14:59:56;11.20;99.90
26051;DHT22;13825;53.496;10.020;2022-11-02T15:02:30;11.10;99.90
26051;DHT22;13825;53.496;10.020;2022-11-02T15:04:59;11.10;99.90
26051;DHT22;13825;53.496;10.020;2022-11-02T15:07:33;11.00;99.90
26051;DHT22;13825;53.496;10.020;2022-11-02T15:10:02;11.00;99.90
26051;DHT22;13825;53.496;10.020;2022-11-02T15:12:40;11.00;99.90
26051;DHT22;13825;53.496;10.020;2022-11-02T15:15:30;10.90;99.90
26051;DHT22;13825;53.496;10.020;2022-11-02T15:18:12;10.80;99.90
26051;DHT22;13825;53.496;10.020;2022-11-02T15:20:41;10.80;99.90
26051;DHT22;13825;53.496;10.020;2022-11-02T15:23:26;10.80;99.90
26051;DHT22;13825;53.496;10.020;2022-11-02T15:25:54;10.70;99.90
26051;DHT22;13825;53.496;10.020;2022-11-02T15:28:23;10.50;99.90
26051;DHT22;13825;53.496;10.020;2022-11-02T15:30:54;10.40;99.90
26051;DHT22;13825;53.496;10.020;2022-11-02T15:33:32;10.40;99.90
26051;DHT22;13825;53.496;10.020;2022-11-02T15:36:00;10.30;99.90
26051;DHT22;13825;53.496;10.020;2022-11-02T15:38:28;10.20;99.90
26051;DHT22;13825;53.496;10.020;2022-11-02T15:41:03;10.20;99.90
26051;DHT22;13825;53.496;10.020;2022-11-02T15:43:46;10.30;99.90
26051;DHT22;13825;53.496;10.020;2022-11-02T15:46:29;10.30;99.90
26051;DHT22;13825;53.496;10.020;2022-11-02T15:49:09;10.40;99.90
26051;DHT22;13825;53.496;10.020;2022-11-02T15:51:44;10.30;99.90
26051;DHT22;13825;53.496;10.020;2022-11-02T15:54:24;10.20;99.90
26051;DHT22;13825;53.496;10.020;2022-11-02T15:57:05;10.20;99.90
26051;DHT22;13825;53.496;10.020;2022-11-02T16:02:59;10.00;99.90
26051;DHT22;13825;53.496;10.020;2022-11-02T16:05:30;9.90;99.90
26051;DHT22;13825;53.496;10.020;2022-11-02T16:07:58;9.80;99.90
26051;DHT22;13825;53.496;10.020;2022-11-02T16:10:26;9.80;99.90
26051;DHT22;13825;53.496;10.020;2022-11-02T16:13:01;9.70;99.90
26051;DHT22;13825;53.496;10.020;2022-11-02T16:15:36;9.70;99.90
26051;DHT22;13825;53.496;10.020;2022-11-02T16:18:24;9.60;99.90
26051;DHT22;13825;53.496;10.020;2022-11-02T16:20:53;9.50;99.90
26051;DHT22;13825;53.496;10.020;2022-11-02T16:23:24;9.50;99.90
26051;DHT22;13825;53.496;10.020;2022-11-02T16:26:01;9.40;99.90
26051;DHT22;13825;53.496;10.020;2022-11-02T16:28:30;9.50;99.90
26051;DHT22;13825;53.496;10.020;2022-11-02T16:31:02;9.50;99.90
26051;DHT22;13825;53.496;10.020;2022-11-02T16:33:33;9.50;99.90
26051;DHT22;13825;53.496;10.020;2022-11-02T16:36:02;9.50;99.90
26051;DHT22;13825;53.496;10.020;2022-11-02T16:38:29;9.50;99.90
26051;DHT22;13825;53.496;10.020;2022-11-02T16:40:58;9.50;99.90
26051;DHT22;13825;53.496;10.020;2022-11-02T16:43:27;9.30;99.90
26051;DHT22;13825;53.496;10.020;2022-11-02T16:45:59;9.20;99.90
26051;DHT22;13825;53.496;10.020;2022-11-02T16:48:29;9.00;99.90
26051;DHT22;13825;53.496;10.020;2022-11-02T16:51:03;9.00;99.90
26051;DHT22;13825;53.496;10.020;2022-11-02T16:53:32;8.90;99.90
26051;DHT22;13825;53.496;10.020;2022-11-02T16:56:14;8.80;99.90